sensor_id;sensor_type;location;lat;lon;timestamp;pressure;altitude;pressure_sealevel;temperature;humidity
20037;BME280;10179;42.640;23.312;2023-01-26T00:00:50;93985.16;;;2.78;55.61
20037;BME280;10179;42.640;23.312;2023-01-26T00:03:15;94110.66;;;3.47;55.93
20037;BME280;10179;42.640;23.312;2023-01-26T00:05:41;94106.75;;;3.51;55.64
20037;BME280;10179;42.640;23.312;2023-01-26T00:08:06;94075.97;;;3.40;55.49
20037;BME280;10179;42.640;23.312;2023-01-26T00:10:35;94114.16;;;3.63;55.66
20037;BME280;10179;42.640;23.312;2023-01-26T00:13:02;94115.78;;;3.64;55.88
20037;BME280;10179;42.640;23.312;2023-01-26T00:15:27;94083.41;;;3.43;55.89
20037;BME280;10179;42.640;23.312;2023-01-26T00:17:52;94119.97;;;3.65;55.89
20037;BME280;10179;42.640;23.312;2023-01-26T00:20:18;94128.59;;;3.65;55.76
20037;BME280;10179;42.640;23.312;2023-01-26T00:22:43;94133.94;;;3.64;55.46
20037;BME280;10179;42.640;23.312;2023-01-26T00:25:09;94051.06;;;3.23;55.87
20037;BME280;10179;42.640;23.312;2023-01-26T00:27:34;94125.00;;;3.66;55.58
20037;BME280;10179;42.640;23.312;2023-01-26T00:30:00;94110.88;;;3.69;55.31
20037;BME280;10179;42.640;23.312;2023-01-26T00:32:26;93933.63;;;2.67;55.49
20037;BME280;10179;42.640;23.312;2023-01-26T00:34:51;94094.06;;;3.56;55.47
20037;BME280;10179;42.640;23.312;2023-01-26T00:37:17;94110.25;;;3.67;55.86
20037;BME280;10179;42.640;23.312;2023-01-26T00:39:42;94077.22;;;3.52;55.55
20037;BME280;10179;42.640;23.312;2023-01-26T00:42:07;93950.78;;;2.76;54.84
20037;BME280;10179;42.640;23.312;2023-01-26T00:44:39;94076.88;;;3.55;55.20
20037;BME280;10179;42.640;23.312;2023-01-26T00:47:06;94080.16;;;3.49;55.69
20037;BME280;10179;42.640;23.312;2023-01-26T00:49:32;93992.81;;;3.02;54.98
20037;BME280;10179;42.640;23.312;2023-01-26T00:51:58;94082.34;;;3.61;55.49
20037;BME280;10179;42.640;23.312;2023-01-26T00:54:23;94131.69;;;3.61;55.53
20037;BME280;10179;42.640;23.312;2023-01-26T00:56:49;94031.94;;;3.24;55.15
20037;BME280;10179;42.640;23.312;2023-01-26T00:59:14;94016.25;;;3.17;55.02
20037;BME280;10179;42.640;23.312;2023-01-26T01:01:39;94003.94;;;3.11;54.87
20037;BME280;10179;42.640;23.312;2023-01-26T01:04:05;94032.88;;;3.31;54.85
20037;BME280;10179;42.640;23.312;2023-01-26T01:06:30;94034.47;;;3.32;55.17
20037;BME280;10179;42.640;23.312;2023-01-26T01:08:56;94062.44;;;3.53;55.08
20037;BME280;10179;42.640;23.312;2023-01-26T01:11:21;94058.44;;;3.42;54.92
20037;BME280;10179;42.640;23.312;2023-01-26T01:13:47;93998.28;;;3.07;55.13
20037;BME280;10179;42.640;23.312;2023-01-26T01:16:14;94074.28;;;3.55;55.18
20037;BME280;10179;42.640;23.312;2023-01-26T01:18:40;94063.25;;;3.53;54.77
20037;BME280;10179;42.640;23.312;2023-01-26T01:21:10;93975.59;;;3.01;55.09
20037;BME280;10179;42.640;23.312;2023-01-26T01:23:36;93995.63;;;3.16;54.87
20037;BME280;10179;42.640;23.312;2023-01-26T01:26:03;94055.44;;;3.53;55.00
20037;BME280;10179;42.640;23.312;2023-01-26T01:28:28;94062.44;;;3.53;54.88
20037;BME280;10179;42.640;23.312;2023-01-26T01:30:54;94068.44;;;3.53;54.94
20037;BME280;10179;42.640;23.312;2023-01-26T01:33:21;94050.91;;;3.55;54.66
20037;BME280;10179;42.640;23.312;2023-01-26T01:36:01;94060.63;;;3.62;54.88
20037;BME280;10179;42.640;23.312;2023-01-26T01:38:26;93991.16;;;3.09;54.25
20037;BME280;10179;42.640;23.312;2023-01-26T01:40:52;93999.53;;;3.20;54.86
20037;BME280;10179;42.640;23.312;2023-01-26T01:43:18;93929.38;;;2.82;54.65
20037;BME280;10179;42.640;23.312;2023-01-26T01:45:46;94054.13;;;3.57;54.80
20037;BME280;10179;42.640;23.312;2023-01-26T01:48:51;93966.53;;;3.05;54.20
20037;BME280;10179;42.640;23.312;2023-01-26T01:51:51;94095.66;;;3.57;54.41
20037;BME280;10179;42.640;23.312;2023-01-26T01:54:14;94037.50;;;3.44;54.56
20037;BME280;10179;42.640;23.312;2023-01-26T01:56:44;94045.88;;;3.54;53.96
20037;BME280;10179;42.640;23.312;2023-01-26T01:59:12;94033.97;;;3.37;53.92
20037;BME280;10179;42.640;23.312;2023-01-26T02:01:38;94035.34;;;3.47;54.11
20037;BME280;10179;42.640;23.312;2023-01-26T02:04:05;94049.97;;;3.48;54.48
20037;BME280;10179;42.640;23.312;2023-01-26T02:06:52;94025.97;;;3.46;53.95
20037;BME280;10179;42.640;23.312;2023-01-26T02:09:32;93981.44;;;3.03;54.19
20037;BME280;10179;42.640;23.312;2023-01-26T02:12:21;94029.22;;;3.48;54.18
20037;BME280;10179;42.640;23.312;2023-01-26T02:14:49;93740.81;;;1.59;54.34
20037;BME280;10179;42.640;23.312;2023-01-26T02:17:15;94017.25;;;3.39;53.66
20037;BME280;10179;42.640;23.312;2023-01-26T02:20:03;94001.97;;;3.44;54.19
20037;BME280;10179;42.640;23.312;2023-01-26T02:23:35;94008.78;;;3.45;54.38
20037;BME280;10179;42.640;23.312;2023-01-26T02:25:43;94008.84;;;3.37;54.19
20037;BME280;10179;42.640;23.312;2023-01-26T02:28:12;93812.44;;;2.14;54.22
20037;BME280;10179;42.640;23.312;2023-01-26T02:30:37;93589.78;;;0.74;53.95
20037;BME280;10179;42.640;23.312;2023-01-26T02:33:03;93922.34;;;2.91;54.07
20037;BME280;10179;42.640;23.312;2023-01-26T02:35:28;93976.13;;;3.28;54.27
20037;BME280;10179;42.640;23.312;2023-01-26T02:37:53;94003.00;;;3.35;53.98
20037;BME280;10179;42.640;23.312;2023-01-26T02:40:29;93985.81;;;3.34;53.78
20037;BME280;10179;42.640;23.312;2023-01-26T02:42:59;93891.22;;;2.59;54.21
20037;BME280;10179;42.640;23.312;2023-01-26T02:45:26;93994.91;;;3.30;53.95
20037;BME280;10179;42.640;23.312;2023-01-26T02:47:53;93923.91;;;3.00;53.93
20037;BME280;10179;42.640;23.312;2023-01-26T02:50:19;93974.97;;;3.30;53.98
20037;BME280;10179;42.640;23.312;2023-01-26T02:52:44;93975.78;;;3.31;54.19
20037;BME280;10179;42.640;23.312;2023-01-26T02:55:10;93774.41;;;2.07;54.33
20037;BME280;10179;42.640;23.312;2023-01-26T02:57:51;93915.66;;;2.96;54.60
20037;BME280;10179;42.640;23.312;2023-01-26T03:00:37;93950.41;;;3.41;54.03
20037;BME280;10179;42.640;23.312;2023-01-26T03:03:13;93912.66;;;3.07;54.26
20037;BME280;10179;42.640;23.312;2023-01-26T03:05:40;93922.38;;;3.14;54.17
20037;BME280;10179;42.640;23.312;2023-01-26T03:08:06;93954.69;;;3.34;54.14
20037;BME280;10179;42.640;23.312;2023-01-26T03:10:32;93921.25;;;3.08;53.84
20037;BME280;10179;42.640;23.312;2023-01-26T03:12:57;93931.13;;;3.13;54.31
20037;BME280;10179;42.640;23.312;2023-01-26T03:15:24;93940.81;;;3.19;54.00
20037;BME280;10179;42.640;23.312;2023-01-26T03:18:13;93913.94;;;3.11;53.60
20037;BME280;10179;42.640;23.312;2023-01-26T03:20:59;93915.44;;;3.06;53.66
20037;BME280;10179;42.640;23.312;2023-01-26T03:23:43;93892.66;;;2.93;54.08
20037;BME280;10179;42.640;23.312;2023-01-26T03:26:27;93922.94;;;3.24;54.02
20037;BME280;10179;42.640;23.312;2023-01-26T03:29:11;93918.09;;;3.21;53.89
20037;BME280;10179;42.640;23.312;2023-01-26T03:31:36;93791.25;;;2.34;54.08
20037;BME280;10179;42.640;23.312;2023-01-26T03:34:01;93857.53;;;2.59;53.69
20037;BME280;10179;42.640;23.312;2023-01-26T03:36:27;93912.56;;;3.24;53.57
20037;BME280;10179;42.640;23.312;2023-01-26T03:38:52;93908.53;;;3.21;54.35
20037;BME280;10179;42.640;23.312;2023-01-26T03:41:18;93877.75;;;2.95;54.36
20037;BME280;10179;42.640;23.312;2023-01-26T03:44:02;93837.38;;;2.70;53.64
20037;BME280;10179;42.640;23.312;2023-01-26T03:46:45;93879.00;;;2.99;54.26
20037;BME280;10179;42.640;23.312;2023-01-26T03:49:30;93930.28;;;3.20;53.91
20037;BME280;10179;42.640;23.312;2023-01-26T03:52:13;93818.53;;;2.53;53.95
20037;BME280;10179;42.640;23.312;2023-01-26T03:54:57;93906.47;;;3.17;53.98
20037;BME280;10179;42.640;23.312;2023-01-26T03:57:41;93891.44;;;3.04;53.83
20037;BME280;10179;42.640;23.312;2023-01-26T04:00:07;93796.81;;;2.54;53.61
20037;BME280;10179;42.640;23.312;2023-01-26T04:02:32;93748.53;;;2.30;53.73
20037;BME280;10179;42.640;23.312;2023-01-26T04:05:17;93889.56;;;3.21;54.02
20037;BME280;10179;42.640;23.312;2023-01-26T04:08:05;93869.22;;;3.09;54.14
20037;BME280;10179;42.640;23.312;2023-01-26T04:10:47;93893.28;;;3.18;53.47
20037;BME280;10179;42.640;23.312;2023-01-26T04:13:15;93882.13;;;3.18;54.08
20037;BME280;10179;42.640;23.312;2023-01-26T04:15:59;93894.75;;;3.21;53.91
20037;BME280;10179;42.640;23.312;2023-01-26T04:18:43;93876.25;;;3.24;53.51
20037;BME280;10179;42.640;23.312;2023-01-26T04:21:27;93815.88;;;2.84;53.71
20037;BME280;10179;42.640;23.312;2023-01-26T04:24:01;93864.03;;;3.09;53.89
20037;BME280;10179;42.640;23.312;2023-01-26T04:26:30;93855.13;;;3.27;53.72
20037;BME280;10179;42.640;23.312;2023-01-26T04:29:03;93843.13;;;3.26;53.92
20037;BME280;10179;42.640;23.312;2023-01-26T04:31:29;93857.28;;;3.23;53.97
20037;BME280;10179;42.640;23.312;2023-01-26T04:33:55;93823.09;;;2.97;53.93
20037;BME280;10179;42.640;23.312;2023-01-26T04:36:22;93806.72;;;2.96;53.97
20037;BME280;10179;42.640;23.312;2023-01-26T04:38:47;93854.69;;;3.23;53.62
20037;BME280;10179;42.640;23.312;2023-01-26T04:41:13;93728.03;;;2.43;53.71
20037;BME280;10179;42.640;23.312;2023-01-26T04:43:39;93867.47;;;3.25;53.43
20037;BME280;10179;42.640;23.312;2023-01-26T04:46:06;93855.13;;;3.27;53.63
20037;BME280;10179;42.640;23.312;2023-01-26T04:48:32;93828.03;;;3.06;53.05
20037;BME280;10179;42.640;23.312;2023-01-26T04:51:06;93857.09;;;3.25;53.19
20037;BME280;10179;42.640;23.312;2023-01-26T04:53:32;93860.94;;;3.29;53.15
20037;BME280;10179;42.640;23.312;2023-01-26T04:55:58;93799.69;;;2.82;53.02
20037;BME280;10179;42.640;23.312;2023-01-26T04:58:24;93846.81;;;3.08;53.03
20037;BME280;10179;42.640;23.312;2023-01-26T05:00:51;93868.38;;;3.32;52.68
20037;BME280;10179;42.640;23.312;2023-01-26T05:03:17;93856.19;;;3.32;52.84
20037;BME280;10179;42.640;23.312;2023-01-26T05:05:42;93846.06;;;3.23;52.35
20037;BME280;10179;42.640;23.312;2023-01-26T05:08:08;93861.22;;;3.34;52.66
20037;BME280;10179;42.640;23.312;2023-01-26T05:10:33;93855.69;;;3.37;52.93
20037;BME280;10179;42.640;23.312;2023-01-26T05:12:58;93775.03;;;2.86;52.62
20037;BME280;10179;42.640;23.312;2023-01-26T05:15:24;93812.47;;;3.06;53.04
20037;BME280;10179;42.640;23.312;2023-01-26T05:17:50;93856.97;;;3.41;52.72
20037;BME280;10179;42.640;23.312;2023-01-26T05:20:15;93833.47;;;3.20;52.70
20037;BME280;10179;42.640;23.312;2023-01-26T05:22:41;93863.75;;;3.42;52.79
20037;BME280;10179;42.640;23.312;2023-01-26T05:25:08;93812.06;;;3.18;52.41
20037;BME280;10179;42.640;23.312;2023-01-26T05:27:34;93862.41;;;3.46;52.57
20037;BME280;10179;42.640;23.312;2023-01-26T05:30:00;93848.72;;;3.38;52.61
20037;BME280;10179;42.640;23.312;2023-01-26T05:32:29;93812.31;;;3.23;52.66
20037;BME280;10179;42.640;23.312;2023-01-26T05:34:55;93839.75;;;3.40;51.89
20037;BME280;10179;42.640;23.312;2023-01-26T05:37:23;93761.97;;;2.94;52.34
20037;BME280;10179;42.640;23.312;2023-01-26T05:39:49;93864.94;;;3.54;51.97
20037;BME280;10179;42.640;23.312;2023-01-26T05:42:16;93785.47;;;3.16;52.24
20037;BME280;10179;42.640;23.312;2023-01-26T05:44:41;93836.53;;;3.38;51.84
20037;BME280;10179;42.640;23.312;2023-01-26T05:47:06;93855.63;;;3.60;52.25
20037;BME280;10179;42.640;23.312;2023-01-26T05:49:32;93843.28;;;3.62;51.72
20037;BME280;10179;42.640;23.312;2023-01-26T05:51:57;93826.53;;;3.50;52.15
20037;BME280;10179;42.640;23.312;2023-01-26T05:54:23;93850.09;;;3.63;52.20
20037;BME280;10179;42.640;23.312;2023-01-26T05:56:49;93826.38;;;3.51;52.08
20037;BME280;10179;42.640;23.312;2023-01-26T05:59:15;93840.34;;;3.65;51.79
20037;BME280;10179;42.640;23.312;2023-01-26T06:01:40;93739.75;;;3.00;51.54
20037;BME280;10179;42.640;23.312;2023-01-26T06:04:06;93844.34;;;3.68;51.89
20037;BME280;10179;42.640;23.312;2023-01-26T06:06:32;93817.91;;;3.34;51.78
20037;BME280;10179;42.640;23.312;2023-01-26T06:08:58;93824.66;;;3.58;51.66
20037;BME280;10179;42.640;23.312;2023-01-26T06:11:24;93809.69;;;3.46;51.89
20037;BME280;10179;42.640;23.312;2023-01-26T06:13:49;93847.84;;;3.75;51.80
20037;BME280;10179;42.640;23.312;2023-01-26T06:16:14;93771.69;;;3.15;51.41
20037;BME280;10179;42.640;23.312;2023-01-26T06:18:40;93843.13;;;3.78;51.81
20037;BME280;10179;42.640;23.312;2023-01-26T06:21:05;93843.91;;;3.79;51.30
20037;BME280;10179;42.640;23.312;2023-01-26T06:23:31;93816.97;;;3.65;51.37
20037;BME280;10179;42.640;23.312;2023-01-26T06:26:00;93852.16;;;3.82;51.33
20037;BME280;10179;42.640;23.312;2023-01-26T06:28:27;93834.31;;;3.65;51.45
20037;BME280;10179;42.640;23.312;2023-01-26T06:31:01;93829.63;;;3.83;51.36
20037;BME280;10179;42.640;23.312;2023-01-26T06:33:27;93656.78;;;2.77;51.45
20037;BME280;10179;42.640;23.312;2023-01-26T06:35:52;93821.47;;;3.86;51.64
20037;BME280;10179;42.640;23.312;2023-01-26T06:38:19;93882.81;;;3.87;51.67
20037;BME280;10179;42.640;23.312;2023-01-26T06:40:44;93826.28;;;3.89;51.49
20037;BME280;10179;42.640;23.312;2023-01-26T06:43:09;93689.13;;;3.04;51.51
20037;BME280;10179;42.640;23.312;2023-01-26T06:45:35;93805.59;;;3.81;51.51
20037;BME280;10179;42.640;23.312;2023-01-26T06:48:00;93783.03;;;3.67;51.48
20037;BME280;10179;42.640;23.312;2023-01-26T06:50:31;93838.41;;;3.97;51.68
20037;BME280;10179;42.640;23.312;2023-01-26T06:52:58;93809.81;;;3.67;51.49
20037;BME280;10179;42.640;23.312;2023-01-26T06:55:37;93755.63;;;3.20;51.45
20037;BME280;10179;42.640;23.312;2023-01-26T06:58:04;93814.19;;;3.96;51.70
20037;BME280;10179;42.640;23.312;2023-01-26T07:00:29;93748.47;;;3.51;51.37
20037;BME280;10179;42.640;23.312;2023-01-26T07:02:54;93722.69;;;3.35;51.39
20037;BME280;10179;42.640;23.312;2023-01-26T07:05:20;93642.22;;;2.91;51.60
20037;BME280;10179;42.640;23.312;2023-01-26T07:07:45;93809.44;;;4.00;51.28
20037;BME280;10179;42.640;23.312;2023-01-26T07:10:11;93801.81;;;3.98;51.68
20037;BME280;10179;42.640;23.312;2023-01-26T07:12:44;93795.91;;;4.04;51.77
20037;BME280;10179;42.640;23.312;2023-01-26T07:15:11;93797.28;;;4.00;51.59
20037;BME280;10179;42.640;23.312;2023-01-26T07:17:38;93773.78;;;3.79;51.46
20037;BME280;10179;42.640;23.312;2023-01-26T07:20:05;93719.63;;;3.46;51.33
20037;BME280;10179;42.640;23.312;2023-01-26T07:22:30;93690.84;;;3.41;51.11
20037;BME280;10179;42.640;23.312;2023-01-26T07:24:56;93741.94;;;3.70;51.29
20037;BME280;10179;42.640;23.312;2023-01-26T07:27:22;93749.38;;;3.58;51.16
20037;BME280;10179;42.640;23.312;2023-01-26T07:29:48;93766.16;;;3.92;51.15
20037;BME280;10179;42.640;23.312;2023-01-26T07:32:16;93731.97;;;3.74;51.42
20037;BME280;10179;42.640;23.312;2023-01-26T07:34:42;93783.63;;;4.13;51.17
20037;BME280;10179;42.640;23.312;2023-01-26T07:37:08;93764.09;;;4.02;51.10
20037;BME280;10179;42.640;23.312;2023-01-26T07:39:34;93784.06;;;4.17;51.13
20037;BME280;10179;42.640;23.312;2023-01-26T07:42:02;93752.34;;;4.06;51.27
20037;BME280;10179;42.640;23.312;2023-01-26T07:44:28;93770.19;;;4.10;51.14
20037;BME280;10179;42.640;23.312;2023-01-26T07:46:54;93723.81;;;3.92;51.16
20037;BME280;10179;42.640;23.312;2023-01-26T07:49:20;93763.63;;;4.14;50.88
20037;BME280;10179;42.640;23.312;2023-01-26T07:51:47;93755.81;;;4.14;50.89
20037;BME280;10179;42.640;23.312;2023-01-26T07:54:14;93676.66;;;3.58;50.77
20037;BME280;10179;42.640;23.312;2023-01-26T07:56:41;93722.75;;;3.86;50.82
20037;BME280;10179;42.640;23.312;2023-01-26T07:59:10;93742.84;;;4.14;50.99
20037;BME280;10179;42.640;23.312;2023-01-26T08:01:37;93769.25;;;4.32;50.63
20037;BME280;10179;42.640;23.312;2023-01-26T08:04:04;93796.50;;;4.36;50.45
20037;BME280;10179;42.640;23.312;2023-01-26T08:06:30;93722.81;;;4.07;50.70
20037;BME280;10179;42.640;23.312;2023-01-26T08:08:56;93769.13;;;4.40;50.45
20037;BME280;10179;42.640;23.312;2023-01-26T08:11:22;93753.81;;;4.30;50.23
20037;BME280;10179;42.640;23.312;2023-01-26T08:13:50;93725.28;;;4.16;50.45
20037;BME280;10179;42.640;23.312;2023-01-26T08:16:16;93706.44;;;4.14;50.39
20037;BME280;10179;42.640;23.312;2023-01-26T08:18:44;93762.00;;;4.49;50.36
20037;BME280;10179;42.640;23.312;2023-01-26T08:21:12;93748.47;;;4.32;50.25
20037;BME280;10179;42.640;23.312;2023-01-26T08:23:38;93705.56;;;4.06;50.05
20037;BME280;10179;42.640;23.312;2023-01-26T08:26:07;93765.44;;;4.49;50.24
20037;BME280;10179;42.640;23.312;2023-01-26T08:28:33;93764.00;;;4.47;50.41
20037;BME280;10179;42.640;23.312;2023-01-26T08:31:05;93747.91;;;4.37;50.15
20037;BME280;10179;42.640;23.312;2023-01-26T08:33:32;93728.56;;;4.24;50.27
20037;BME280;10179;42.640;23.312;2023-01-26T08:36:06;93713.22;;;4.08;50.43
20037;BME280;10179;42.640;23.312;2023-01-26T08:38:33;93721.47;;;4.33;50.22
20037;BME280;10179;42.640;23.312;2023-01-26T08:41:00;93733.81;;;4.31;50.19
20037;BME280;10179;42.640;23.312;2023-01-26T08:43:27;93716.41;;;4.10;50.30
20037;BME280;10179;42.640;23.312;2023-01-26T08:45:53;93736.78;;;4.28;50.34
20037;BME280;10179;42.640;23.312;2023-01-26T08:48:19;93749.94;;;4.41;50.56
20037;BME280;10179;42.640;23.312;2023-01-26T08:50:45;93757.72;;;4.41;50.39
20037;BME280;10179;42.640;23.312;2023-01-26T08:53:12;93726.50;;;4.20;50.56
20037;BME280;10179;42.640;23.312;2023-01-26T08:55:38;93681.59;;;4.04;50.42
20037;BME280;10179;42.640;23.312;2023-01-26T08:58:04;93750.56;;;4.43;50.48
20037;BME280;10179;42.640;23.312;2023-01-26T09:00:30;93715.75;;;4.23;50.47
20037;BME280;10179;42.640;23.312;2023-01-26T09:03:03;93720.91;;;4.38;50.38
20037;BME280;10179;42.640;23.312;2023-01-26T09:05:37;93738.13;;;4.60;50.36
20037;BME280;10179;42.640;23.312;2023-01-26T09:08:04;93652.66;;;3.93;50.09
20037;BME280;10179;42.640;23.312;2023-01-26T09:10:30;93717.25;;;4.32;50.32
20037;BME280;10179;42.640;23.312;2023-01-26T09:12:59;93726.81;;;4.46;50.23
20037;BME280;10179;42.640;23.312;2023-01-26T09:15:25;93758.44;;;4.71;50.20
20037;BME280;10179;42.640;23.312;2023-01-26T09:17:51;93720.03;;;4.52;49.91
20037;BME280;10179;42.640;23.312;2023-01-26T09:20:17;93660.19;;;4.24;49.84
20037;BME280;10179;42.640;23.312;2023-01-26T09:22:42;93574.38;;;3.74;49.89
20037;BME280;10179;42.640;23.312;2023-01-26T09:25:08;93617.22;;;4.06;49.73
20037;BME280;10179;42.640;23.312;2023-01-26T09:27:33;93640.63;;;4.28;49.78
20037;BME280;10179;42.640;23.312;2023-01-26T09:29:59;93659.94;;;4.40;49.49
20037;BME280;10179;42.640;23.312;2023-01-26T09:32:25;93601.53;;;4.15;49.36
20037;BME280;10179;42.640;23.312;2023-01-26T09:34:50;93711.53;;;4.86;49.47
20037;BME280;10179;42.640;23.312;2023-01-26T09:37:16;93692.25;;;4.74;49.46
20037;BME280;10179;42.640;23.312;2023-01-26T09:39:42;93719.16;;;4.88;49.48
20037;BME280;10179;42.640;23.312;2023-01-26T09:50:26;93632.34;;;4.39;49.86
20037;BME280;10179;42.640;23.312;2023-01-26T09:53:17;93711.28;;;5.02;49.51
20037;BME280;10179;42.640;23.312;2023-01-26T09:55:45;93700.97;;;4.94;49.53
20037;BME280;10179;42.640;23.312;2023-01-26T09:58:16;93700.81;;;4.96;49.62
20037;BME280;10179;42.640;23.312;2023-01-26T10:00:51;93661.16;;;4.66;49.61
20037;BME280;10179;42.640;23.312;2023-01-26T10:08:30;93692.81;;;4.97;49.49
20037;BME280;10179;42.640;23.312;2023-01-26T10:11:13;93674.38;;;4.92;49.61
20037;BME280;10179;42.640;23.312;2023-01-26T10:13:47;93690.44;;;5.02;49.49
20037;BME280;10179;42.640;23.312;2023-01-26T10:16:15;93661.53;;;4.91;49.26
20037;BME280;10179;42.640;23.312;2023-01-26T10:19:03;93668.06;;;5.08;49.43
20037;BME280;10179;42.640;23.312;2023-01-26T10:21:43;93646.72;;;4.91;49.57
20037;BME280;10179;42.640;23.312;2023-01-26T10:24:10;93635.50;;;4.91;49.40
20037;BME280;10179;42.640;23.312;2023-01-26T10:26:37;93643.59;;;5.02;49.48
20037;BME280;10179;42.640;23.312;2023-01-26T10:29:03;93646.72;;;4.91;49.47
20037;BME280;10179;42.640;23.312;2023-01-26T10:31:32;93653.63;;;5.06;49.63
20037;BME280;10179;42.640;23.312;2023-01-26T10:34:00;93373.56;;;3.39;49.34
20037;BME280;10179;42.640;23.312;2023-01-26T10:36:30;93618.00;;;5.06;49.55
20037;BME280;10179;42.640;23.312;2023-01-26T10:39:05;93628.84;;;5.10;49.31
20037;BME280;10179;42.640;23.312;2023-01-26T10:41:31;93447.13;;;4.02;49.15
20037;BME280;10179;42.640;23.312;2023-01-26T10:44:02;93599.59;;;5.08;49.54
20037;BME280;10179;42.640;23.312;2023-01-26T10:46:33;93607.81;;;5.11;49.50
20037;BME280;10179;42.640;23.312;2023-01-26T10:49:15;93569.94;;;5.09;49.18
20037;BME280;10179;42.640;23.312;2023-01-26T10:51:45;93585.59;;;5.15;49.13
20037;BME280;10179;42.640;23.312;2023-01-26T10:54:28;93550.91;;;5.01;49.29
20037;BME280;10179;42.640;23.312;2023-01-26T10:56:56;93567.63;;;5.20;49.13
20037;BME280;10179;42.640;23.312;2023-01-26T10:59:31;93581.25;;;5.29;49.12
20037;BME280;10179;42.640;23.312;2023-01-26T11:07:38;93545.03;;;5.28;48.68
20037;BME280;10179;42.640;23.312;2023-01-26T11:12:44;93530.63;;;5.38;48.45
20037;BME280;10179;42.640;23.312;2023-01-26T11:15:19;93519.56;;;5.30;48.78
20037;BME280;10179;42.640;23.312;2023-01-26T11:17:49;93520.81;;;5.40;48.50
20037;BME280;10179;42.640;23.312;2023-01-26T11:32:04;93506.63;;;5.49;48.68
20037;BME280;10179;42.640;23.312;2023-01-26T11:56:39;93384.13;;;4.83;48.56
20037;BME280;10179;42.640;23.312;2023-01-26T11:59:21;93415.00;;;5.06;48.71
20037;BME280;10179;42.640;23.312;2023-01-26T12:01:57;93493.22;;;5.53;48.67
20037;BME280;10179;42.640;23.312;2023-01-26T12:04:25;93439.84;;;5.22;48.80
20037;BME280;10179;42.640;23.312;2023-01-26T12:06:59;93473.56;;;5.57;48.94
20037;BME280;10179;42.640;23.312;2023-01-26T12:09:46;93478.41;;;5.60;49.23
20037;BME280;10179;42.640;23.312;2023-01-26T12:12:23;93465.19;;;5.55;48.94
20037;BME280;10179;42.640;23.312;2023-01-26T12:14:55;93411.03;;;5.17;48.72
20037;BME280;10179;42.640;23.312;2023-01-26T12:17:26;93461.94;;;5.53;48.59
20037;BME280;10179;42.640;23.312;2023-01-26T12:20:23;93453.94;;;5.61;48.81
20037;BME280;10179;42.640;23.312;2023-01-26T12:23:00;93445.31;;;5.54;48.90
20037;BME280;10179;42.640;23.312;2023-01-26T12:25:32;93435.13;;;5.52;49.17
20037;BME280;10179;42.640;23.312;2023-01-26T12:28:04;93429.09;;;5.52;49.28
20037;BME280;10179;42.640;23.312;2023-01-26T12:31:03;93426.31;;;5.60;49.65
20037;BME280;10179;42.640;23.312;2023-01-26T12:33:32;93427.47;;;5.50;49.34
20037;BME280;10179;42.640;23.312;2023-01-26T12:39:02;93426.69;;;5.50;49.31
20037;BME280;10179;42.640;23.312;2023-01-26T12:49:40;93298.47;;;4.75;49.87
20037;BME280;10179;42.640;23.312;2023-01-26T12:52:17;93430.69;;;5.53;50.13
20037;BME280;10179;42.640;23.312;2023-01-26T12:54:53;93401.03;;;5.40;50.38
20037;BME280;10179;42.640;23.312;2023-01-26T12:57:25;93376.41;;;5.23;50.04
20037;BME280;10179;42.640;23.312;2023-01-26T13:00:03;93376.22;;;5.44;49.97
20037;BME280;10179;42.640;23.312;2023-01-26T13:02:31;93331.72;;;5.06;50.21
20037;BME280;10179;42.640;23.312;2023-01-26T13:05:00;93395.25;;;5.52;50.45
20037;BME280;10179;42.640;23.312;2023-01-26T13:07:33;93399.44;;;5.53;50.64
20037;BME280;10179;42.640;23.312;2023-01-26T13:13:24;93396.25;;;5.57;50.78
20037;BME280;10179;42.640;23.312;2023-01-26T13:15:46;93389.44;;;5.49;50.82
20037;BME280;10179;42.640;23.312;2023-01-26T13:18:16;93383.22;;;5.50;50.65
20037;BME280;10179;42.640;23.312;2023-01-26T13:20:44;93376.22;;;5.44;50.83
20037;BME280;10179;42.640;23.312;2023-01-26T13:23:42;93391.81;;;5.58;50.95
20037;BME280;10179;42.640;23.312;2023-01-26T13:26:11;93402.06;;;5.53;51.08
20037;BME280;10179;42.640;23.312;2023-01-26T13:28:39;93342.97;;;5.20;50.92
20037;BME280;10179;42.640;23.312;2023-01-26T13:31:05;93391.03;;;5.50;51.22
20037;BME280;10179;42.640;23.312;2023-01-26T13:33:31;93385.63;;;5.52;51.04
20037;BME280;10179;42.640;23.312;2023-01-26T13:35:57;93382.22;;;5.52;51.06
20037;BME280;10179;42.640;23.312;2023-01-26T13:38:36;93405.47;;;5.60;51.18
20037;BME280;10179;42.640;23.312;2023-01-26T13:41:08;93311.72;;;5.13;51.21
20037;BME280;10179;42.640;23.312;2023-01-26T13:43:41;93385.63;;;5.59;51.11
20037;BME280;10179;42.640;23.312;2023-01-26T13:46:22;93394.66;;;5.63;51.08
20037;BME280;10179;42.640;23.312;2023-01-26T13:48:53;93379.81;;;5.57;51.25
20037;BME280;10179;42.640;23.312;2023-01-26T13:51:26;93387.03;;;5.55;51.21
20037;BME280;10179;42.640;23.312;2023-01-26T13:54:05;93396.03;;;5.72;51.04
20037;BME280;10179;42.640;23.312;2023-01-26T13:56:36;93378.22;;;5.56;51.22
20037;BME280;10179;42.640;23.312;2023-01-26T14:01:41;93371.41;;;5.55;51.65
20037;BME280;10179;42.640;23.312;2023-01-26T14:04:12;93368.38;;;5.58;51.47
20037;BME280;10179;42.640;23.312;2023-01-26T14:06:37;93351.16;;;5.57;51.60
20037;BME280;10179;42.640;23.312;2023-01-26T14:09:03;93337.97;;;5.52;51.51
20037;BME280;10179;42.640;23.312;2023-01-26T14:11:32;93346.34;;;5.67;51.28
20037;BME280;10179;42.640;23.312;2023-01-26T14:13:59;93326.91;;;5.63;51.24
20037;BME280;10179;42.640;23.312;2023-01-26T14:16:29;93342.94;;;5.73;51.02
20037;BME280;10179;42.640;23.312;2023-01-26T14:19:17;93322.09;;;5.73;50.98
20037;BME280;10179;42.640;23.312;2023-01-26T14:24:14;93328.09;;;5.80;50.72
20037;BME280;10179;42.640;23.312;2023-01-26T14:26:40;93332.50;;;5.86;50.51
20037;BME280;10179;42.640;23.312;2023-01-26T14:29:36;93230.97;;;5.46;50.41